Mannington, West Virginia
Current Conditions -  °F | °C
As of 8:53 PM on Friday 28 Nov 2014 (Local Time) from KCKB Reporting Station
Clear Clear  
Wind Chill: 21°   Ceiling: Unl
Heat Index: 26°   Visibility: 10mi
Dew Point: 18°   Wind: 5mph
Humidity: 71%   Direction: 150°SSE
Pressure: 30.21"   Gusts: NA
Location:  39.53°N, 80.34°W
Report Text: KCKB 290153Z 15004KT 10SM CLR M03/M08 A3021 RMK AO2 SLP241 T10331078
Loading
Personal Weather Stations






























Interactive Weather Map New forecast layout! Learn more

10-Day Weather Forecast

Advertisements
Track Severe Weather on mobile